createdAt,value
2022-09-07T00:01:47.992Z,99.9
2022-09-07T00:09:55.555Z,99.9
2022-09-07T00:11:57.446Z,99.9
2022-09-07T00:16:04.454Z,99.9
2022-09-07T00:20:34.880Z,99.9
2022-09-07T00:22:36.780Z,99.9
2022-09-07T00:24:38.688Z,99.9
2022-09-07T00:28:45.651Z,99.9
2022-09-07T00:32:49.451Z,99.9
2022-09-07T00:34:51.363Z,99.9
2022-09-07T00:38:55.198Z,99.9
2022-09-07T00:45:04.045Z,99.9
2022-09-07T00:47:05.955Z,99.9
2022-09-07T00:49:07.847Z,99.9
2022-09-07T00:51:09.769Z,99.9
2022-09-07T00:53:11.684Z,99.9
2022-09-07T00:55:16.753Z,99.9
2022-09-07T00:57:18.650Z,99.9
2022-09-07T00:59:20.575Z,99.9
2022-09-07T01:01:22.622Z,99.9
2022-09-07T01:03:24.364Z,99.9
2022-09-07T01:05:26.776Z,99.9
2022-09-07T01:07:28.230Z,99.9
2022-09-07T01:09:33.286Z,99.9
2022-09-07T01:11:35.185Z,99.9
2022-09-07T01:13:37.086Z,99.9
2022-09-07T01:14:39.630Z,99.9
2022-09-07T01:16:41.556Z,99.9
2022-09-07T01:18:43.480Z,99.9
2022-09-07T01:20:45.382Z,99.9
2022-09-07T01:22:50.434Z,99.9
2022-09-07T01:24:52.343Z,99.9
2022-09-07T01:26:54.275Z,99.9
2022-09-07T01:28:56.173Z,99.9
2022-09-07T01:30:58.209Z,99.9
2022-09-07T01:33:00.030Z,99.9
2022-09-07T01:35:01.944Z,99.9
2022-09-07T01:37:08.556Z,99.9
2022-09-07T01:39:10.409Z,99.9
2022-09-07T01:41:12.341Z,99.9
2022-09-07T01:45:16.153Z,99.9
2022-09-07T01:47:18.083Z,99.9
2022-09-07T01:49:19.996Z,99.9
2022-09-07T01:51:25.040Z,99.9
2022-09-07T01:53:26.941Z,99.9
2022-09-07T01:55:28.874Z,99.9
2022-09-07T01:57:30.782Z,99.9
2022-09-07T01:59:32.694Z,99.9
2022-09-07T02:01:34.707Z,99.9
2022-09-07T02:09:45.414Z,99.9
2022-09-07T02:10:47.953Z,99.9
2022-09-07T02:14:52.863Z,99.9
2022-09-07T02:16:53.670Z,99.9
2022-09-07T02:18:58.705Z,99.9
2022-09-07T02:23:02.524Z,99.9
2022-09-07T02:25:04.437Z,99.9
2022-09-07T02:27:06.343Z,99.9
2022-09-07T02:29:08.266Z,99.9
2022-09-07T02:31:10.238Z,99.9
2022-09-07T02:33:15.250Z,99.9
2022-09-07T02:35:17.198Z,99.9
2022-09-07T02:37:19.110Z,99.9
2022-09-07T02:39:20.986Z,99.9
2022-09-07T02:43:24.840Z,99.9
2022-09-07T02:45:26.722Z,99.9
2022-09-07T02:47:31.812Z,99.9
2022-09-07T02:49:33.701Z,99.9
2022-09-07T02:51:35.634Z,99.9
2022-09-07T02:53:37.535Z,99.9
2022-09-07T02:55:39.405Z,99.9
2022-09-07T02:57:41.323Z,99.9
2022-09-07T02:59:43.244Z,99.9
2022-09-07T03:01:48.362Z,99.9
2022-09-07T03:03:50.207Z,99.9
2022-09-07T03:05:52.101Z,99.9
2022-09-07T03:06:54.645Z,99.9
2022-09-07T03:08:56.561Z,99.9
2022-09-07T03:15:05.404Z,99.9
2022-09-07T03:17:07.344Z,99.9
2022-09-07T03:19:09.243Z,99.9
2022-09-07T03:25:14.983Z,99.9
2022-09-07T03:31:23.948Z,99.9
2022-09-07T03:37:29.587Z,99.9
2022-09-07T03:39:31.595Z,99.9
2022-09-07T03:41:33.422Z,99.9
2022-09-07T03:43:38.448Z,99.9
2022-09-07T03:45:40.411Z,99.9
2022-09-07T03:47:42.282Z,99.9
2022-09-07T03:49:44.155Z,99.9
2022-09-07T03:51:46.096Z,99.9
2022-09-07T03:53:48.017Z,99.9
2022-09-07T03:55:49.924Z,99.9
2022-09-07T03:57:55.023Z,99.9
2022-09-07T03:59:56.993Z,99.9
2022-09-07T04:01:58.874Z,99.9
2022-09-07T04:04:27.413Z,99.9
2022-09-07T04:10:36.253Z,99.9
2022-09-07T04:12:38.164Z,99.9
2022-09-07T04:14:40.083Z,99.9
2022-09-07T04:16:42.074Z,99.9
2022-09-07T04:18:43.865Z,99.9
2022-09-07T04:20:45.817Z,99.9
2022-09-07T04:22:49.595Z,99.9
2022-09-07T04:24:52.806Z,99.9
2022-09-07T04:26:54.718Z,99.9
2022-09-07T04:28:56.616Z,99.9
2022-09-07T04:30:58.541Z,99.9
2022-09-07T04:33:00.417Z,99.9
2022-09-07T04:35:02.304Z,99.9
2022-09-07T04:37:04.225Z,99.9
2022-09-07T04:43:13.046Z,99.9
2022-09-07T04:47:16.874Z,99.9
2022-09-07T04:55:27.612Z,99.9
2022-09-07T04:57:29.533Z,99.9
2022-09-07T05:00:33.942Z,99.9
2022-09-07T05:02:35.863Z,99.9
2022-09-07T05:04:37.769Z,99.9
2022-09-07T05:06:42.825Z,99.9
2022-09-07T05:08:44.686Z,99.9
2022-09-07T05:12:48.497Z,99.9
2022-09-07T05:14:50.410Z,99.9
2022-09-07T05:16:52.365Z,99.9
2022-09-07T05:18:54.202Z,99.9
2022-09-07T05:20:59.257Z,99.9
2022-09-07T05:23:01.148Z,99.9
2022-09-07T05:25:03.045Z,99.9
2022-09-07T05:27:04.964Z,99.9
2022-09-07T05:49:32.167Z,99.9
2022-09-07T05:51:34.065Z,99.9
2022-09-07T05:53:35.970Z,99.9
2022-09-07T05:54:38.481Z,99.9
2022-09-07T05:56:40.412Z,99.9
2022-09-07T05:58:42.310Z,99.9
2022-09-07T06:00:44.218Z,99.9
2022-09-07T06:02:49.358Z,99.9
2022-09-07T06:07:20.083Z,99.9
2022-09-07T06:08:54.960Z,99.9
2022-09-07T06:10:56.850Z,99.9
2022-09-07T06:21:09.505Z,99.9
2022-09-07T06:25:13.288Z,99.9
2022-09-07T06:27:15.191Z,99.9
2022-09-07T06:29:17.092Z,99.9
2022-09-07T06:31:22.173Z,99.9
2022-09-07T06:33:24.035Z,99.9
2022-09-07T06:35:25.916Z,99.9
2022-09-07T06:37:27.817Z,99.9
2022-09-07T06:39:29.751Z,99.9
2022-09-07T06:41:59.473Z,99.9
2022-09-07T06:43:33.522Z,99.9
2022-09-07T06:47:40.482Z,99.9
2022-09-07T06:49:42.358Z,99.9
2022-09-07T06:56:50.577Z,99.9
2022-09-07T06:58:55.605Z,99.9
2022-09-07T07:00:57.590Z,99.9
2022-09-07T07:02:59.431Z,99.9
2022-09-07T07:07:03.184Z,99.9
2022-09-07T07:09:05.082Z,99.9
2022-09-07T07:13:12.286Z,99.9
2022-09-07T07:15:13.910Z,99.9
2022-09-07T07:17:15.795Z,99.9
2022-09-07T07:19:17.681Z,99.9
2022-09-07T07:21:19.567Z,99.9
2022-09-07T07:25:23.348Z,99.9
2022-09-07T07:27:28.383Z,99.9
2022-09-07T07:29:31.830Z,99.9
2022-09-07T07:31:33.671Z,99.9
2022-09-07T07:33:35.590Z,99.9
2022-09-07T07:35:37.451Z,99.9
2022-09-07T07:37:39.353Z,99.9
2022-09-07T07:41:54.591Z,99.9
2022-09-07T07:43:48.147Z,99.9
2022-09-07T07:48:18.535Z,99.9
2022-09-07T07:50:34.149Z,99.9
2022-09-07T07:52:50.655Z,99.9
2022-09-07T07:54:27.353Z,99.9
2022-09-07T07:56:29.215Z,99.9
2022-09-07T07:58:31.081Z,99.9
2022-09-07T08:00:52.996Z,99.9
2022-09-07T08:02:34.932Z,99.9
2022-09-07T08:04:36.690Z,99.9
2022-09-07T08:06:38.560Z,99.9
2022-09-07T08:08:43.597Z,99.9
2022-09-07T08:10:45.459Z,99.9
2022-09-07T08:12:47.344Z,99.9
2022-09-07T08:14:49.219Z,99.9
2022-09-07T08:16:51.112Z,99.9
2022-09-07T08:18:53.015Z,99.9
2022-09-07T08:20:54.863Z,99.9
2022-09-07T08:22:59.894Z,99.9
2022-09-07T08:25:01.829Z,99.9
2022-09-07T08:27:03.652Z,99.9
2022-09-07T08:29:05.532Z,99.9
2022-09-07T08:31:07.445Z,99.9
2022-09-07T08:33:09.305Z,99.9
2022-09-07T08:35:11.159Z,99.9
2022-09-07T08:37:16.189Z,99.9
2022-09-07T08:39:18.060Z,99.9
2022-09-07T08:41:19.933Z,99.9
2022-09-07T08:42:22.454Z,99.9
2022-09-07T08:44:24.314Z,99.9
2022-09-07T08:46:26.264Z,99.9
2022-09-07T08:48:28.028Z,99.9
2022-09-07T08:50:33.051Z,99.9
2022-09-07T08:52:34.920Z,99.9
2022-09-07T08:54:36.780Z,99.9
2022-09-07T08:56:39.313Z,99.9
2022-09-07T08:58:49.601Z,99.9
2022-09-07T09:00:42.381Z,99.9
2022-09-07T09:02:45.639Z,99.9
2022-09-07T09:05:17.845Z,99.9
2022-09-07T09:06:51.241Z,99.9
2022-09-07T09:08:52.948Z,99.9
2022-09-07T09:10:54.807Z,99.9
2022-09-07T09:12:56.668Z,99.9
2022-09-07T09:14:58.548Z,99.9
2022-09-07T09:17:00.374Z,99.9
2022-09-07T09:19:05.417Z,99.9
2022-09-07T09:21:07.250Z,99.9
2022-09-07T09:23:09.074Z,99.9
2022-09-07T09:25:10.922Z,99.9
2022-09-07T09:27:12.799Z,99.9
2022-09-07T09:29:14.619Z,99.9
2022-09-07T09:31:16.561Z,99.9
2022-09-07T09:33:21.488Z,99.9
2022-09-07T09:35:23.349Z,99.9
2022-09-07T09:38:27.793Z,99.9
2022-09-07T09:40:29.606Z,99.9
2022-09-07T09:42:31.353Z,99.9
2022-09-07T09:44:33.190Z,99.9
2022-09-07T09:46:38.284Z,99.9
2022-09-07T09:48:40.069Z,99.9
2022-09-07T09:52:47.936Z,99.9
2022-09-07T09:54:45.553Z,99.9
2022-09-07T09:56:47.392Z,99.9
2022-09-07T10:01:22.120Z,99.9
2022-09-07T10:04:57.954Z,99.9
2022-09-07T10:06:59.676Z,99.9
2022-09-07T10:13:05.156Z,99.9
2022-09-07T10:15:10.118Z,99.9
2022-09-07T10:17:11.937Z,99.9
2022-09-07T10:19:13.741Z,99.9
2022-09-07T10:21:15.571Z,99.9
2022-09-07T10:23:17.344Z,99.9
2022-09-07T10:25:19.156Z,99.9
2022-09-07T10:27:20.965Z,99.9
2022-09-07T10:29:25.949Z,99.9
2022-09-07T10:31:27.837Z,99.9
2022-09-07T10:33:29.539Z,99.9
2022-09-07T10:40:37.415Z,99.9
2022-09-07T10:44:44.170Z,99.9
2022-09-07T10:48:47.737Z,99.9
2022-09-07T10:50:49.543Z,99.9
2022-09-07T10:52:51.303Z,99.9
2022-09-07T10:54:53.091Z,99.9
2022-09-07T10:56:58.056Z,99.9
2022-09-07T10:59:03.798Z,99.9
2022-09-07T11:01:02.226Z,99.9
2022-09-07T11:07:06.931Z,99.9
2022-09-07T11:09:17.221Z,99.9
2022-09-07T11:11:13.636Z,99.9
2022-09-07T11:15:17.189Z,99.9
2022-09-07T11:17:18.957Z,99.9
2022-09-07T11:19:37.503Z,99.9
2022-09-07T11:25:29.732Z,99.9
2022-09-07T11:27:30.980Z,99.9
2022-09-07T11:29:32.732Z,99.9
2022-09-07T11:32:01.128Z,99.9
2022-09-07T11:34:25.499Z,99.9
2022-09-07T11:36:07.566Z,99.9
2022-09-07T11:38:09.605Z,99.9
2022-09-07T11:40:11.475Z,99.9
2022-09-07T11:42:43.133Z,99.9
2022-09-07T11:44:14.877Z,99.9
2022-09-07T11:46:16.688Z,99.9
2022-09-07T11:48:19.518Z,99.9
2022-09-07T11:50:20.155Z,99.9
2022-09-07T11:52:25.108Z,99.9
2022-09-07T11:54:26.872Z,99.9
2022-09-07T11:56:28.606Z,99.9
2022-09-07T12:00:32.136Z,99.9
2022-09-07T12:02:55.768Z,99.9
2022-09-07T12:04:35.747Z,99.9
2022-09-07T12:06:40.589Z,99.9
2022-09-07T12:08:42.324Z,99.9
2022-09-07T12:12:45.839Z,99.9
2022-09-07T12:14:47.598Z,99.9
2022-09-07T12:16:49.371Z,99.9
2022-09-07T12:18:51.156Z,99.9
2022-09-07T12:23:02.165Z,99.9
2022-09-07T12:24:59.579Z,99.9
2022-09-07T12:30:05.575Z,99.9
2022-09-07T12:32:53.234Z,99.9
2022-09-07T12:34:12.279Z,99.9
2022-09-07T12:38:15.802Z,99.9
2022-09-07T12:40:17.582Z,99.9
2022-09-07T12:42:37.286Z,99.9
2022-09-07T12:44:21.099Z,99.9
2022-09-07T12:46:22.917Z,99.9
2022-09-07T12:48:27.788Z,99.9
2022-09-07T12:50:29.542Z,99.9
2022-09-07T12:52:31.626Z,99.9
2022-09-07T13:00:38.318Z,99.9
2022-09-07T13:02:43.370Z,99.9
2022-09-07T13:08:48.494Z,99.9
2022-09-07T13:12:53.388Z,99.9
2022-09-07T13:14:53.673Z,99.9
2022-09-07T13:17:16.931Z,99.9
2022-09-07T13:19:01.899Z,99.9
2022-09-07T13:21:03.542Z,99.9
2022-09-07T13:22:05.943Z,99.9
2022-09-07T13:26:09.357Z,99.9
2022-09-07T13:28:11.078Z,99.9
2022-09-07T13:32:17.683Z,99.9
2022-09-07T13:34:19.397Z,99.9
2022-09-07T13:36:21.096Z,99.9
2022-09-07T13:44:31.128Z,99.9
2022-09-07T13:46:32.910Z,99.9
2022-09-07T13:48:34.578Z,99.9
2022-09-07T13:52:37.995Z,99.9
2022-09-07T13:54:39.716Z,99.9
2022-09-07T13:56:41.428Z,99.9
2022-09-07T14:00:48.040Z,99.9
2022-09-07T14:02:53.262Z,99.9
2022-09-07T14:04:51.458Z,99.9
2022-09-07T14:06:53.156Z,99.9
2022-09-07T14:15:08.260Z,99.7
2022-09-07T14:17:05.051Z,99.7
2022-09-07T14:18:07.401Z,99.7
2022-09-07T14:20:09.135Z,99.7
2022-09-07T14:26:18.494Z,97.8
2022-09-07T14:36:41.785Z,97.2
2022-09-07T14:40:32.730Z,95.1
2022-09-07T14:42:34.450Z,94.2
2022-09-07T14:44:36.157Z,94
2022-09-07T14:46:37.875Z,93.4
2022-09-07T14:48:39.809Z,92.5
2022-09-07T14:50:43.252Z,91.7
2022-09-07T14:53:33.630Z,84.1
2022-09-07T14:54:47.938Z,89.5
2022-09-07T14:56:49.661Z,89.8
2022-09-07T14:58:51.331Z,90.8
2022-09-07T15:02:54.752Z,91.5
2022-09-07T15:04:56.433Z,92.1
2022-09-07T15:07:01.631Z,92.5
2022-09-07T15:09:03.046Z,93
2022-09-07T15:11:33.468Z,93
2022-09-07T15:13:06.513Z,93.3
2022-09-07T15:15:34.762Z,93.3
2022-09-07T15:17:44.326Z,93.3
2022-09-07T15:19:38.176Z,93.4
2022-09-07T15:21:43.070Z,93.4
2022-09-07T15:23:44.784Z,93.2
2022-09-07T15:25:50.507Z,93.4
2022-09-07T15:27:48.232Z,93.6
2022-09-07T15:29:49.941Z,93.4
2022-09-07T15:32:01.733Z,93.3
2022-09-07T15:33:53.359Z,93.1
2022-09-07T15:35:58.774Z,92.5
2022-09-07T15:38:02.270Z,92.3
2022-09-07T15:40:02.203Z,92.3
2022-09-07T15:42:59.533Z,92.1
2022-09-07T15:44:05.239Z,92.2
2022-09-07T15:46:06.932Z,92
2022-09-07T15:48:08.612Z,91.6
2022-09-07T15:50:13.544Z,91.1
2022-09-07T15:52:15.249Z,91
2022-09-07T15:54:16.995Z,90.8
2022-09-07T15:56:20.314Z,90.8
2022-09-07T15:58:20.428Z,90.9
2022-09-07T16:00:22.156Z,90.7
2022-09-07T16:04:28.879Z,91.2
2022-09-07T16:06:30.580Z,91.4
2022-09-07T16:08:33.357Z,91.6
2022-09-07T16:09:37.763Z,91.6
2022-09-07T16:13:38.199Z,91
2022-09-07T16:15:39.944Z,91.3
2022-09-07T16:17:47.462Z,91.6
2022-09-07T16:19:46.627Z,91.6
2022-09-07T16:21:48.339Z,91.5
2022-09-07T16:23:50.099Z,91.2
2022-09-07T16:25:51.827Z,91.3
2022-09-07T16:27:53.587Z,91.2
2022-09-07T16:29:55.326Z,90.9
2022-09-07T16:34:01.994Z,90.9
2022-09-07T16:36:03.728Z,90.8
2022-09-07T16:40:07.373Z,91.1
2022-09-07T16:42:08.996Z,91.1
2022-09-07T16:44:10.708Z,91.2
2022-09-07T16:46:15.634Z,91.7
2022-09-07T16:48:17.376Z,91.6
2022-09-07T16:50:19.122Z,91.6
2022-09-07T16:52:20.874Z,91.9
2022-09-07T16:54:22.615Z,92.1
2022-09-07T16:56:24.381Z,92
2022-09-07T16:58:37.761Z,92
2022-09-07T17:00:33.891Z,92
2022-09-07T17:02:32.820Z,91.9
2022-09-07T17:04:34.583Z,91.9
2022-09-07T17:05:37.035Z,91.9
2022-09-07T17:07:38.796Z,91.9
2022-09-07T17:09:40.533Z,91.9
2022-09-07T17:11:42.292Z,91.7
2022-09-07T17:13:47.242Z,91.5
2022-09-07T17:17:50.742Z,91.9
2022-09-07T17:19:53.141Z,92.5
2022-09-07T17:21:54.272Z,92.3
2022-09-07T17:23:56.191Z,92.7
2022-09-07T17:25:57.945Z,92.7
2022-09-07T17:28:02.735Z,92.8
2022-09-07T17:30:06.651Z,93.2
2022-09-07T17:32:26.334Z,91.5
2022-09-07T17:34:08.753Z,94
2022-09-07T17:36:09.792Z,94.5
2022-09-07T17:40:13.342Z,95
2022-09-07T17:42:18.253Z,95.3
2022-09-07T17:44:20.025Z,95.4
2022-09-07T17:48:23.565Z,95.4
2022-09-07T17:50:25.327Z,94.7
2022-09-07T17:52:27.095Z,94.9
2022-09-07T17:54:28.865Z,94.9
2022-09-07T17:56:33.830Z,95.7
2022-09-07T17:58:35.592Z,96.4
2022-09-07T18:00:37.469Z,96.6
2022-09-07T18:03:41.983Z,96.8
2022-09-07T18:05:43.441Z,96.9
2022-09-07T18:07:45.222Z,96.7
2022-09-07T18:09:50.157Z,96.7
2022-09-07T18:11:51.938Z,97.1
2022-09-07T18:13:53.714Z,96.9
2022-09-07T18:15:55.833Z,97.3
2022-09-07T18:17:57.281Z,97.5
2022-09-07T18:19:59.095Z,97.8
2022-09-07T18:22:02.719Z,98
2022-09-07T18:24:05.843Z,98.9
2022-09-07T18:26:07.617Z,99.1
2022-09-07T18:30:11.219Z,99.4
2022-09-07T18:32:13.030Z,99.6
2022-09-07T18:34:14.797Z,99.6
2022-09-07T18:36:16.588Z,99.8
2022-09-07T18:38:21.552Z,99.9
2022-09-07T18:40:23.441Z,99.9
2022-09-07T18:42:25.129Z,99.9
2022-09-07T18:48:30.515Z,99.9
2022-09-07T18:50:32.311Z,99.9
2022-09-07T18:52:53.356Z,99.9
2022-09-07T18:54:39.052Z,99.9
2022-09-07T18:56:40.873Z,99.9
2022-09-07T18:59:09.268Z,99.9
2022-09-07T19:01:11.210Z,99.9
2022-09-07T19:03:12.850Z,99.9
2022-09-07T19:07:19.629Z,99.9
2022-09-07T19:09:21.403Z,99.9
2022-09-07T19:11:24.782Z,99.9
2022-09-07T19:13:26.600Z,99.9
2022-09-07T19:15:28.332Z,99.9
2022-09-07T19:17:30.098Z,99.9
2022-09-07T19:19:35.058Z,99.9
2022-09-07T19:21:36.864Z,99.9
2022-09-07T19:23:38.669Z,99.9
2022-09-07T19:25:40.454Z,99.9
2022-09-07T19:27:42.260Z,99.9
2022-09-07T19:29:44.056Z,99.9
2022-09-07T19:31:45.983Z,99.9
2022-09-07T19:33:50.859Z,99.9
2022-09-07T19:35:52.643Z,99.9
2022-09-07T19:37:54.451Z,99.9
2022-09-07T19:39:56.412Z,99.9
2022-09-07T19:41:58.064Z,99.9
2022-09-07T19:43:59.887Z,99.9
2022-09-07T19:46:01.685Z,99.9
2022-09-07T19:48:06.662Z,99.9
2022-09-07T19:52:10.298Z,99.9
2022-09-07T19:53:12.776Z,99.9
2022-09-07T19:55:14.615Z,99.9
2022-09-07T19:57:16.420Z,99.9
2022-09-07T19:59:18.229Z,99.9
2022-09-07T20:01:23.255Z,99.9
2022-09-07T20:03:25.095Z,99.9
2022-09-07T20:07:28.690Z,99.9
2022-09-07T20:11:32.321Z,99.9
2022-09-07T20:13:34.332Z,99.9
2022-09-07T20:15:39.157Z,99.9
2022-09-07T20:19:42.915Z,99.9
2022-09-07T20:21:44.659Z,99.9
2022-09-07T20:23:46.486Z,99.9
2022-09-07T20:25:48.296Z,99.9
2022-09-07T20:29:55.154Z,99.9
2022-09-07T20:31:57.072Z,99.9
2022-09-07T20:33:58.797Z,99.9
2022-09-07T20:40:04.411Z,99.9
2022-09-07T20:46:13.039Z,99.9
2022-09-07T20:48:14.840Z,99.9
2022-09-07T20:49:17.346Z,99.9
2022-09-07T20:55:22.871Z,99.9
2022-09-07T20:57:27.879Z,99.9
2022-09-07T20:59:29.737Z,99.9
2022-09-07T21:03:33.579Z,99.9
2022-09-07T21:05:35.290Z,99.9
2022-09-07T21:09:38.970Z,99.9
2022-09-07T21:13:45.843Z,99.9
2022-09-07T21:15:47.736Z,99.9
2022-09-07T21:21:53.285Z,99.9
2022-09-07T21:23:55.099Z,99.9
2022-09-07T21:30:03.832Z,99.9
2022-09-07T21:32:05.706Z,99.9
2022-09-07T21:34:07.549Z,99.9
2022-09-07T21:40:16.335Z,99.9
2022-09-07T21:42:18.141Z,99.9
2022-09-07T21:44:19.975Z,99.9
2022-09-07T21:45:22.498Z,99.9
2022-09-07T21:47:24.330Z,99.9
2022-09-07T21:49:26.196Z,99.9
2022-09-07T21:51:28.076Z,99.9
2022-09-07T21:53:33.226Z,99.9
2022-09-07T21:55:34.950Z,99.9
2022-09-07T21:57:36.818Z,99.9
2022-09-07T21:59:38.661Z,99.9
2022-09-07T22:01:40.583Z,99.9
2022-09-07T22:05:44.273Z,99.9
2022-09-07T22:07:49.268Z,99.9
2022-09-07T22:09:51.157Z,99.9
2022-09-07T22:11:53.032Z,99.9
2022-09-07T22:13:54.866Z,99.9
2022-09-07T22:15:56.825Z,99.9
2022-09-07T22:17:58.670Z,99.9
2022-09-07T22:20:00.566Z,99.9
2022-09-07T22:22:05.579Z,99.9
2022-09-07T22:24:07.440Z,99.9
2022-09-07T22:28:11.173Z,99.9
2022-09-07T22:30:13.021Z,99.9
2022-09-07T22:32:14.910Z,99.9
2022-09-07T22:34:16.799Z,99.9
2022-09-07T22:36:21.843Z,99.9
2022-09-07T22:38:23.713Z,99.9
2022-09-07T22:40:25.575Z,99.9
2022-09-07T22:42:54.119Z,99.9
2022-09-07T22:44:55.978Z,99.9
2022-09-07T22:46:57.985Z,99.9
2022-09-07T22:49:02.930Z,99.9
2022-09-07T22:51:04.799Z,99.9
2022-09-07T22:53:06.682Z,99.9
2022-09-07T22:57:10.443Z,99.9
2022-09-07T23:01:14.179Z,99.9
2022-09-07T23:05:21.099Z,99.9
2022-09-07T23:07:22.964Z,99.9
2022-09-07T23:09:24.842Z,99.9
2022-09-07T23:11:26.730Z,99.9
2022-09-07T23:13:28.618Z,99.9
2022-09-07T23:15:30.482Z,99.9
2022-09-07T23:17:35.498Z,99.9
2022-09-07T23:19:37.369Z,99.9
2022-09-07T23:21:39.242Z,99.9
2022-09-07T23:23:41.129Z,99.9
2022-09-07T23:25:43.006Z,99.9
2022-09-07T23:27:44.889Z,99.9
2022-09-07T23:29:46.760Z,99.9
2022-09-07T23:31:51.846Z,99.9
2022-09-07T23:33:53.665Z,99.9
2022-09-07T23:35:55.524Z,99.9
2022-09-07T23:36:58.040Z,99.9
2022-09-07T23:38:59.925Z,99.9
2022-09-07T23:41:01.819Z,99.9
2022-09-07T23:43:03.684Z,99.9
2022-09-07T23:45:08.699Z,99.9
2022-09-07T23:47:10.606Z,99.9
2022-09-07T23:49:12.448Z,99.9
2022-09-07T23:51:14.327Z,99.9
2022-09-07T23:53:16.218Z,99.9
2022-09-07T23:55:18.077Z,99.9
2022-09-07T23:57:19.968Z,99.9
2022-09-07T23:59:25.013Z,99.9
